sensor_id;sensor_type;location;lat;lon;timestamp;temperature;humidity
27803;DHT22;15182;48.174;11.562;2023-05-20T00:00:49;18.40;93.80
27803;DHT22;15182;48.174;11.562;2023-05-20T00:03:18;18.40;93.80
27803;DHT22;15182;48.174;11.562;2023-05-20T00:05:46;18.40;93.80
27803;DHT22;15182;48.174;11.562;2023-05-20T00:08:14;18.40;93.90
27803;DHT22;15182;48.174;11.562;2023-05-20T00:10:43;18.30;93.90
27803;DHT22;15182;48.174;11.562;2023-05-20T00:13:11;18.30;93.90
27803;DHT22;15182;48.174;11.562;2023-05-20T00:15:39;18.30;93.90
27803;DHT22;15182;48.174;11.562;2023-05-20T00:18:06;18.30;94.00
27803;DHT22;15182;48.174;11.562;2023-05-20T00:20:34;18.20;93.90
27803;DHT22;15182;48.174;11.562;2023-05-20T00:23:02;18.20;94.00
27803;DHT22;15182;48.174;11.562;2023-05-20T00:25:30;18.20;94.00
27803;DHT22;15182;48.174;11.562;2023-05-20T00:27:59;18.20;94.10
27803;DHT22;15182;48.174;11.562;2023-05-20T00:30:27;18.20;94.10
27803;DHT22;15182;48.174;11.562;2023-05-20T00:32:55;18.20;94.20
27803;DHT22;15182;48.174;11.562;2023-05-20T00:35:22;18.20;94.20
27803;DHT22;15182;48.174;11.562;2023-05-20T00:37:50;18.20;94.20
27803;DHT22;15182;48.174;11.562;2023-05-20T00:40:18;18.10;94.20
27803;DHT22;15182;48.174;11.562;2023-05-20T00:42:47;18.10;94.30
27803;DHT22;15182;48.174;11.562;2023-05-20T00:45:16;18.10;94.30
27803;DHT22;15182;48.174;11.562;2023-05-20T00:47:44;18.10;94.30
27803;DHT22;15182;48.174;11.562;2023-05-20T00:50:12;18.10;94.30
27803;DHT22;15182;48.174;11.562;2023-05-20T00:52:39;18.10;94.40
27803;DHT22;15182;48.174;11.562;2023-05-20T00:55:10;18.10;94.40
27803;DHT22;15182;48.174;11.562;2023-05-20T00:57:38;18.10;94.40
27803;DHT22;15182;48.174;11.562;2023-05-20T01:00:07;18.10;94.40
27803;DHT22;15182;48.174;11.562;2023-05-20T01:02:38;18.10;94.50
27803;DHT22;15182;48.174;11.562;2023-05-20T01:05:06;18.00;94.50
27803;DHT22;15182;48.174;11.562;2023-05-20T01:07:34;18.10;94.50
27803;DHT22;15182;48.174;11.562;2023-05-20T01:10:02;18.10;94.50
27803;DHT22;15182;48.174;11.562;2023-05-20T01:12:36;18.00;94.50
27803;DHT22;15182;48.174;11.562;2023-05-20T01:15:07;18.00;94.60
27803;DHT22;15182;48.174;11.562;2023-05-20T01:17:40;18.00;94.70
27803;DHT22;15182;48.174;11.562;2023-05-20T01:20:12;18.00;94.70
27803;DHT22;15182;48.174;11.562;2023-05-20T01:22:48;18.00;94.70
27803;DHT22;15182;48.174;11.562;2023-05-20T01:25:16;17.90;94.80
27803;DHT22;15182;48.174;11.562;2023-05-20T01:27:45;18.00;94.80
27803;DHT22;15182;48.174;11.562;2023-05-20T01:30:14;18.00;94.80
27803;DHT22;15182;48.174;11.562;2023-05-20T01:32:46;17.90;94.80
27803;DHT22;15182;48.174;11.562;2023-05-20T01:35:16;17.90;94.90
27803;DHT22;15182;48.174;11.562;2023-05-20T01:37:48;17.90;94.90
27803;DHT22;15182;48.174;11.562;2023-05-20T01:40:17;17.90;94.90
27803;DHT22;15182;48.174;11.562;2023-05-20T01:42:46;17.90;94.90
27803;DHT22;15182;48.174;11.562;2023-05-20T01:45:18;17.80;94.90
27803;DHT22;15182;48.174;11.562;2023-05-20T01:47:46;17.80;95.00
27803;DHT22;15182;48.174;11.562;2023-05-20T01:50:16;17.80;95.00
27803;DHT22;15182;48.174;11.562;2023-05-20T01:52:44;17.80;95.10
27803;DHT22;15182;48.174;11.562;2023-05-20T01:55:14;17.80;95.10
27803;DHT22;15182;48.174;11.562;2023-05-20T01:57:43;17.80;95.20
27803;DHT22;15182;48.174;11.562;2023-05-20T02:00:11;17.80;95.10
27803;DHT22;15182;48.174;11.562;2023-05-20T02:02:44;17.80;95.20
27803;DHT22;15182;48.174;11.562;2023-05-20T02:05:12;17.80;95.20
27803;DHT22;15182;48.174;11.562;2023-05-20T02:07:42;17.70;95.30
27803;DHT22;15182;48.174;11.562;2023-05-20T02:10:10;17.70;95.30
27803;DHT22;15182;48.174;11.562;2023-05-20T02:12:39;17.70;95.40
27803;DHT22;15182;48.174;11.562;2023-05-20T02:15:07;17.70;95.80
27803;DHT22;15182;48.174;11.562;2023-05-20T02:17:36;17.70;95.40
27803;DHT22;15182;48.174;11.562;2023-05-20T02:20:06;17.60;95.40
27803;DHT22;15182;48.174;11.562;2023-05-20T02:22:35;17.60;95.50
27803;DHT22;15182;48.174;11.562;2023-05-20T02:25:03;17.70;95.60
27803;DHT22;15182;48.174;11.562;2023-05-20T02:27:32;17.70;95.60
27803;DHT22;15182;48.174;11.562;2023-05-20T02:30:01;17.70;95.60
27803;DHT22;15182;48.174;11.562;2023-05-20T02:32:29;17.60;95.70
27803;DHT22;15182;48.174;11.562;2023-05-20T02:34:59;17.70;95.70
27803;DHT22;15182;48.174;11.562;2023-05-20T02:37:27;17.70;95.70
27803;DHT22;15182;48.174;11.562;2023-05-20T02:39:55;17.60;95.70
27803;DHT22;15182;48.174;11.562;2023-05-20T02:42:23;17.70;95.70
27803;DHT22;15182;48.174;11.562;2023-05-20T02:44:50;17.70;95.80
27803;DHT22;15182;48.174;11.562;2023-05-20T02:47:23;17.70;95.80
27803;DHT22;15182;48.174;11.562;2023-05-20T02:49:51;17.70;95.90
27803;DHT22;15182;48.174;11.562;2023-05-20T02:52:19;17.60;95.80
27803;DHT22;15182;48.174;11.562;2023-05-20T02:54:47;17.70;95.90
27803;DHT22;15182;48.174;11.562;2023-05-20T02:57:15;17.70;95.90
27803;DHT22;15182;48.174;11.562;2023-05-20T02:59:43;17.70;95.90
27803;DHT22;15182;48.174;11.562;2023-05-20T03:02:11;17.70;96.00
27803;DHT22;15182;48.174;11.562;2023-05-20T03:04:41;17.70;96.00
27803;DHT22;15182;48.174;11.562;2023-05-20T03:07:09;17.70;96.10
27803;DHT22;15182;48.174;11.562;2023-05-20T03:09:37;17.70;96.00
27803;DHT22;15182;48.174;11.562;2023-05-20T03:12:05;17.70;96.10
27803;DHT22;15182;48.174;11.562;2023-05-20T03:14:33;17.70;96.20
27803;DHT22;15182;48.174;11.562;2023-05-20T03:17:00;17.70;96.10
27803;DHT22;15182;48.174;11.562;2023-05-20T03:19:28;17.70;96.20
27803;DHT22;15182;48.174;11.562;2023-05-20T03:21:57;17.70;96.20
27803;DHT22;15182;48.174;11.562;2023-05-20T03:24:26;17.70;96.30
27803;DHT22;15182;48.174;11.562;2023-05-20T03:26:55;17.70;96.20
27803;DHT22;15182;48.174;11.562;2023-05-20T03:29:23;17.70;96.20
27803;DHT22;15182;48.174;11.562;2023-05-20T03:31:51;17.70;96.20
27803;DHT22;15182;48.174;11.562;2023-05-20T03:34:19;17.70;96.30
27803;DHT22;15182;48.174;11.562;2023-05-20T03:36:50;17.70;96.30
27803;DHT22;15182;48.174;11.562;2023-05-20T03:39:19;17.70;96.40
27803;DHT22;15182;48.174;11.562;2023-05-20T03:41:47;17.70;96.40
27803;DHT22;15182;48.174;11.562;2023-05-20T03:44:15;17.60;96.40
27803;DHT22;15182;48.174;11.562;2023-05-20T03:46:43;17.60;96.40
27803;DHT22;15182;48.174;11.562;2023-05-20T03:49:11;17.60;96.40
27803;DHT22;15182;48.174;11.562;2023-05-20T03:51:39;17.60;96.50
27803;DHT22;15182;48.174;11.562;2023-05-20T03:54:11;17.60;96.50
27803;DHT22;15182;48.174;11.562;2023-05-20T03:56:40;17.60;96.50
27803;DHT22;15182;48.174;11.562;2023-05-20T03:59:08;17.60;96.60
27803;DHT22;15182;48.174;11.562;2023-05-20T04:01:36;17.60;96.60
27803;DHT22;15182;48.174;11.562;2023-05-20T04:04:03;17.50;96.60
27803;DHT22;15182;48.174;11.562;2023-05-20T04:06:31;17.60;96.70
27803;DHT22;15182;48.174;11.562;2023-05-20T04:09:00;17.60;96.70
27803;DHT22;15182;48.174;11.562;2023-05-20T04:11:27;17.60;97.10
27803;DHT22;15182;48.174;11.562;2023-05-20T04:13:56;17.50;96.80
27803;DHT22;15182;48.174;11.562;2023-05-20T04:16:25;17.50;96.90
27803;DHT22;15182;48.174;11.562;2023-05-20T04:18:54;17.50;96.80
27803;DHT22;15182;48.174;11.562;2023-05-20T04:21:24;17.50;96.80
27803;DHT22;15182;48.174;11.562;2023-05-20T04:23:52;17.50;96.80
27803;DHT22;15182;48.174;11.562;2023-05-20T04:26:20;17.50;96.90
27803;DHT22;15182;48.174;11.562;2023-05-20T04:28:47;17.50;96.90
27803;DHT22;15182;48.174;11.562;2023-05-20T04:31:17;17.50;97.30
27803;DHT22;15182;48.174;11.562;2023-05-20T04:33:46;17.50;97.00
27803;DHT22;15182;48.174;11.562;2023-05-20T04:36:14;17.50;97.00
27803;DHT22;15182;48.174;11.562;2023-05-20T04:38:42;17.50;97.10
27803;DHT22;15182;48.174;11.562;2023-05-20T04:41:10;17.50;97.10
27803;DHT22;15182;48.174;11.562;2023-05-20T04:43:38;17.50;97.20
27803;DHT22;15182;48.174;11.562;2023-05-20T04:46:06;17.40;97.10
27803;DHT22;15182;48.174;11.562;2023-05-20T04:48:35;17.50;97.20
27803;DHT22;15182;48.174;11.562;2023-05-20T04:51:03;17.40;97.30
27803;DHT22;15182;48.174;11.562;2023-05-20T04:53:32;17.40;97.30
27803;DHT22;15182;48.174;11.562;2023-05-20T04:56:01;17.40;97.30
27803;DHT22;15182;48.174;11.562;2023-05-20T04:58:30;17.40;97.30
27803;DHT22;15182;48.174;11.562;2023-05-20T05:00:59;17.40;97.40
27803;DHT22;15182;48.174;11.562;2023-05-20T05:03:27;17.40;97.40
27803;DHT22;15182;48.174;11.562;2023-05-20T05:05:57;17.40;97.50
27803;DHT22;15182;48.174;11.562;2023-05-20T05:08:26;17.40;97.50
27803;DHT22;15182;48.174;11.562;2023-05-20T05:10:54;17.40;97.50
27803;DHT22;15182;48.174;11.562;2023-05-20T05:13:22;17.40;97.80
27803;DHT22;15182;48.174;11.562;2023-05-20T05:15:57;17.40;97.50
27803;DHT22;15182;48.174;11.562;2023-05-20T05:18:26;17.40;97.60
27803;DHT22;15182;48.174;11.562;2023-05-20T05:21:03;17.40;97.50
27803;DHT22;15182;48.174;11.562;2023-05-20T05:23:34;17.40;97.70
27803;DHT22;15182;48.174;11.562;2023-05-20T05:26:02;17.40;97.60
27803;DHT22;15182;48.174;11.562;2023-05-20T05:28:29;17.40;97.60
27803;DHT22;15182;48.174;11.562;2023-05-20T05:30:58;17.40;97.70
27803;DHT22;15182;48.174;11.562;2023-05-20T05:33:27;17.40;97.80
27803;DHT22;15182;48.174;11.562;2023-05-20T05:35:55;17.40;97.90
27803;DHT22;15182;48.174;11.562;2023-05-20T05:38:26;17.40;97.90
27803;DHT22;15182;48.174;11.562;2023-05-20T05:40:53;17.40;98.00
27803;DHT22;15182;48.174;11.562;2023-05-20T05:43:22;17.40;98.00
27803;DHT22;15182;48.174;11.562;2023-05-20T05:45:50;17.40;98.00
27803;DHT22;15182;48.174;11.562;2023-05-20T05:48:18;17.40;98.00
27803;DHT22;15182;48.174;11.562;2023-05-20T05:50:46;17.40;98.00
27803;DHT22;15182;48.174;11.562;2023-05-20T05:53:16;17.50;98.10
27803;DHT22;15182;48.174;11.562;2023-05-20T05:55:48;17.50;98.20
27803;DHT22;15182;48.174;11.562;2023-05-20T05:58:16;17.50;98.20
27803;DHT22;15182;48.174;11.562;2023-05-20T06:00:45;17.40;98.20
27803;DHT22;15182;48.174;11.562;2023-05-20T06:03:12;17.40;98.30
27803;DHT22;15182;48.174;11.562;2023-05-20T06:05:44;17.40;98.30
27803;DHT22;15182;48.174;11.562;2023-05-20T06:08:12;17.40;98.40
27803;DHT22;15182;48.174;11.562;2023-05-20T06:10:40;17.40;98.40
27803;DHT22;15182;48.174;11.562;2023-05-20T06:13:09;17.40;98.40
27803;DHT22;15182;48.174;11.562;2023-05-20T06:15:38;17.40;98.50
27803;DHT22;15182;48.174;11.562;2023-05-20T06:18:06;17.40;98.50
27803;DHT22;15182;48.174;11.562;2023-05-20T06:20:34;17.30;98.40
27803;DHT22;15182;48.174;11.562;2023-05-20T06:23:02;17.30;98.50
27803;DHT22;15182;48.174;11.562;2023-05-20T06:25:39;17.30;98.60
27803;DHT22;15182;48.174;11.562;2023-05-20T06:28:09;17.30;98.70
27803;DHT22;15182;48.174;11.562;2023-05-20T06:30:37;17.30;98.80
27803;DHT22;15182;48.174;11.562;2023-05-20T06:33:05;17.30;99.00
27803;DHT22;15182;48.174;11.562;2023-05-20T06:35:34;17.30;99.00
27803;DHT22;15182;48.174;11.562;2023-05-20T06:38:02;17.30;99.00
27803;DHT22;15182;48.174;11.562;2023-05-20T06:40:31;17.40;99.00
27803;DHT22;15182;48.174;11.562;2023-05-20T06:42:58;17.40;99.10
27803;DHT22;15182;48.174;11.562;2023-05-20T06:45:57;17.40;99.00
27803;DHT22;15182;48.174;11.562;2023-05-20T06:48:28;17.50;99.10
27803;DHT22;15182;48.174;11.562;2023-05-20T06:50:57;17.50;99.00
27803;DHT22;15182;48.174;11.562;2023-05-20T06:53:25;17.50;99.00
27803;DHT22;15182;48.174;11.562;2023-05-20T06:55:52;17.60;98.90
27803;DHT22;15182;48.174;11.562;2023-05-20T06:58:22;17.60;98.80
27803;DHT22;15182;48.174;11.562;2023-05-20T07:00:49;17.70;98.80
27803;DHT22;15182;48.174;11.562;2023-05-20T07:03:19;17.70;98.80
27803;DHT22;15182;48.174;11.562;2023-05-20T07:05:47;17.70;98.70
27803;DHT22;15182;48.174;11.562;2023-05-20T07:08:15;17.70;98.70
27803;DHT22;15182;48.174;11.562;2023-05-20T07:10:42;17.80;98.70
27803;DHT22;15182;48.174;11.562;2023-05-20T07:13:13;17.80;98.70
27803;DHT22;15182;48.174;11.562;2023-05-20T07:15:41;17.80;98.70
27803;DHT22;15182;48.174;11.562;2023-05-20T07:18:13;17.80;98.70
27803;DHT22;15182;48.174;11.562;2023-05-20T07:20:43;17.90;98.70
27803;DHT22;15182;48.174;11.562;2023-05-20T07:23:22;17.90;98.70
27803;DHT22;15182;48.174;11.562;2023-05-20T07:25:52;18.00;98.60
27803;DHT22;15182;48.174;11.562;2023-05-20T07:28:20;18.00;98.50
27803;DHT22;15182;48.174;11.562;2023-05-20T07:30:49;18.10;98.50
27803;DHT22;15182;48.174;11.562;2023-05-20T07:33:20;18.10;98.60
27803;DHT22;15182;48.174;11.562;2023-05-20T07:35:49;18.10;98.50
27803;DHT22;15182;48.174;11.562;2023-05-20T07:38:20;18.20;98.30
27803;DHT22;15182;48.174;11.562;2023-05-20T07:40:54;18.20;98.10
27803;DHT22;15182;48.174;11.562;2023-05-20T07:43:22;18.20;98.20
27803;DHT22;15182;48.174;11.562;2023-05-20T07:45:50;18.20;98.20
27803;DHT22;15182;48.174;11.562;2023-05-20T07:48:17;18.20;98.20
27803;DHT22;15182;48.174;11.562;2023-05-20T07:50:45;18.20;98.10
27803;DHT22;15182;48.174;11.562;2023-05-20T07:53:15;18.30;98.10
27803;DHT22;15182;48.174;11.562;2023-05-20T07:55:43;18.30;98.00
27803;DHT22;15182;48.174;11.562;2023-05-20T07:58:11;18.30;98.00
27803;DHT22;15182;48.174;11.562;2023-05-20T08:00:39;18.40;98.10
27803;DHT22;15182;48.174;11.562;2023-05-20T08:03:07;18.40;98.20
27803;DHT22;15182;48.174;11.562;2023-05-20T08:05:52;18.40;98.00
27803;DHT22;15182;48.174;11.562;2023-05-20T08:08:21;18.50;98.00
27803;DHT22;15182;48.174;11.562;2023-05-20T08:10:53;18.60;98.10
27803;DHT22;15182;48.174;11.562;2023-05-20T08:13:24;18.70;98.00
27803;DHT22;15182;48.174;11.562;2023-05-20T08:15:53;18.70;97.80
27803;DHT22;15182;48.174;11.562;2023-05-20T08:18:21;18.80;97.80
27803;DHT22;15182;48.174;11.562;2023-05-20T08:20:49;18.90;98.00
27803;DHT22;15182;48.174;11.562;2023-05-20T08:23:17;19.10;97.90
27803;DHT22;15182;48.174;11.562;2023-05-20T08:25:46;19.20;97.80
27803;DHT22;15182;48.174;11.562;2023-05-20T08:28:16;19.30;97.50
27803;DHT22;15182;48.174;11.562;2023-05-20T08:30:45;19.40;97.50
27803;DHT22;15182;48.174;11.562;2023-05-20T08:33:14;19.50;97.40
27803;DHT22;15182;48.174;11.562;2023-05-20T08:35:41;19.60;97.10
27803;DHT22;15182;48.174;11.562;2023-05-20T08:38:09;19.70;97.30
27803;DHT22;15182;48.174;11.562;2023-05-20T08:40:37;19.80;97.00
27803;DHT22;15182;48.174;11.562;2023-05-20T08:43:06;19.90;96.80
27803;DHT22;15182;48.174;11.562;2023-05-20T08:45:37;19.90;96.60
27803;DHT22;15182;48.174;11.562;2023-05-20T08:48:10;20.00;96.80
27803;DHT22;15182;48.174;11.562;2023-05-20T08:50:38;20.10;96.90
27803;DHT22;15182;48.174;11.562;2023-05-20T08:53:06;20.20;96.70
27803;DHT22;15182;48.174;11.562;2023-05-20T08:55:37;20.20;96.60
27803;DHT22;15182;48.174;11.562;2023-05-20T08:58:09;20.30;96.30
27803;DHT22;15182;48.174;11.562;2023-05-20T09:00:37;20.40;96.20
27803;DHT22;15182;48.174;11.562;2023-05-20T09:03:07;20.50;96.10
27803;DHT22;15182;48.174;11.562;2023-05-20T09:05:35;20.50;96.10
27803;DHT22;15182;48.174;11.562;2023-05-20T09:08:06;20.60;96.20
27803;DHT22;15182;48.174;11.562;2023-05-20T09:10:35;20.70;95.80
27803;DHT22;15182;48.174;11.562;2023-05-20T09:13:04;20.80;95.90
27803;DHT22;15182;48.174;11.562;2023-05-20T09:15:34;20.90;95.60
27803;DHT22;15182;48.174;11.562;2023-05-20T09:18:06;20.90;95.80
27803;DHT22;15182;48.174;11.562;2023-05-20T09:20:35;21.00;95.60
27803;DHT22;15182;48.174;11.562;2023-05-20T09:23:05;21.20;95.70
27803;DHT22;15182;48.174;11.562;2023-05-20T09:25:34;21.30;95.50
27803;DHT22;15182;48.174;11.562;2023-05-20T09:28:03;21.40;95.40
27803;DHT22;15182;48.174;11.562;2023-05-20T09:30:31;21.50;95.30
27803;DHT22;15182;48.174;11.562;2023-05-20T09:33:03;21.60;95.00
27803;DHT22;15182;48.174;11.562;2023-05-20T09:35:34;21.70;94.70
27803;DHT22;15182;48.174;11.562;2023-05-20T09:38:04;21.80;94.40
27803;DHT22;15182;48.174;11.562;2023-05-20T09:40:32;21.80;94.10
27803;DHT22;15182;48.174;11.562;2023-05-20T09:43:04;21.90;94.10
27803;DHT22;15182;48.174;11.562;2023-05-20T09:45:34;21.90;93.70
27803;DHT22;15182;48.174;11.562;2023-05-20T09:48:02;22.00;93.50
27803;DHT22;15182;48.174;11.562;2023-05-20T09:50:31;22.00;93.40
27803;DHT22;15182;48.174;11.562;2023-05-20T09:53:03;22.00;93.30
27803;DHT22;15182;48.174;11.562;2023-05-20T09:55:32;22.10;92.80
27803;DHT22;15182;48.174;11.562;2023-05-20T09:58:01;22.10;93.00
27803;DHT22;15182;48.174;11.562;2023-05-20T10:00:29;22.10;92.80
27803;DHT22;15182;48.174;11.562;2023-05-20T10:02:59;22.10;93.00
27803;DHT22;15182;48.174;11.562;2023-05-20T10:05:29;22.20;93.00
27803;DHT22;15182;48.174;11.562;2023-05-20T10:08:36;22.20;92.70
27803;DHT22;15182;48.174;11.562;2023-05-20T10:11:14;22.30;92.80
27803;DHT22;15182;48.174;11.562;2023-05-20T10:14:05;22.40;93.00
27803;DHT22;15182;48.174;11.562;2023-05-20T10:16:50;22.50;93.00
27803;DHT22;15182;48.174;11.562;2023-05-20T10:19:27;22.60;92.50
27803;DHT22;15182;48.174;11.562;2023-05-20T10:21:57;22.70;92.40
27803;DHT22;15182;48.174;11.562;2023-05-20T10:24:30;22.70;92.30
27803;DHT22;15182;48.174;11.562;2023-05-20T10:27:00;22.70;92.20
27803;DHT22;15182;48.174;11.562;2023-05-20T10:29:41;22.70;92.10
27803;DHT22;15182;48.174;11.562;2023-05-20T10:32:09;22.70;91.90
27803;DHT22;15182;48.174;11.562;2023-05-20T10:34:46;22.70;92.00
27803;DHT22;15182;48.174;11.562;2023-05-20T10:37:26;22.70;91.90
27803;DHT22;15182;48.174;11.562;2023-05-20T10:40:06;22.70;91.90
27803;DHT22;15182;48.174;11.562;2023-05-20T10:42:34;22.80;91.90
27803;DHT22;15182;48.174;11.562;2023-05-20T10:45:02;22.80;92.50
27803;DHT22;15182;48.174;11.562;2023-05-20T10:47:31;22.90;93.00
27803;DHT22;15182;48.174;11.562;2023-05-20T10:50:00;23.10;92.80
27803;DHT22;15182;48.174;11.562;2023-05-20T10:52:32;23.30;92.60
27803;DHT22;15182;48.174;11.562;2023-05-20T10:55:00;23.50;92.90
27803;DHT22;15182;48.174;11.562;2023-05-20T10:57:30;23.70;92.70
27803;DHT22;15182;48.174;11.562;2023-05-20T10:59:58;23.90;92.50
27803;DHT22;15182;48.174;11.562;2023-05-20T11:02:26;24.10;91.70
27803;DHT22;15182;48.174;11.562;2023-05-20T11:04:55;24.30;91.40
27803;DHT22;15182;48.174;11.562;2023-05-20T11:07:25;24.40;91.00
27803;DHT22;15182;48.174;11.562;2023-05-20T11:09:54;24.60;90.70
27803;DHT22;15182;48.174;11.562;2023-05-20T11:12:23;24.70;90.60
27803;DHT22;15182;48.174;11.562;2023-05-20T11:14:51;24.80;90.30
27803;DHT22;15182;48.174;11.562;2023-05-20T11:17:19;24.90;89.90
27803;DHT22;15182;48.174;11.562;2023-05-20T11:19:47;25.00;89.20
27803;DHT22;15182;48.174;11.562;2023-05-20T11:22:15;25.20;88.40
27803;DHT22;15182;48.174;11.562;2023-05-20T11:24:44;25.30;88.10
27803;DHT22;15182;48.174;11.562;2023-05-20T11:27:12;25.30;87.50
27803;DHT22;15182;48.174;11.562;2023-05-20T11:29:40;25.40;87.50
27803;DHT22;15182;48.174;11.562;2023-05-20T11:32:08;25.50;88.10
27803;DHT22;15182;48.174;11.562;2023-05-20T11:34:36;25.60;87.60
27803;DHT22;15182;48.174;11.562;2023-05-20T11:37:06;25.70;87.50
27803;DHT22;15182;48.174;11.562;2023-05-20T11:39:35;25.90;87.30
27803;DHT22;15182;48.174;11.562;2023-05-20T11:42:05;26.10;87.40
27803;DHT22;15182;48.174;11.562;2023-05-20T11:44:33;26.20;86.20
27803;DHT22;15182;48.174;11.562;2023-05-20T11:47:02;26.40;86.00
27803;DHT22;15182;48.174;11.562;2023-05-20T11:49:30;26.50;85.70
27803;DHT22;15182;48.174;11.562;2023-05-20T11:52:08;26.60;85.10
27803;DHT22;15182;48.174;11.562;2023-05-20T11:54:37;26.70;85.20
27803;DHT22;15182;48.174;11.562;2023-05-20T11:57:06;26.80;85.20
27803;DHT22;15182;48.174;11.562;2023-05-20T11:59:34;26.90;85.40
27803;DHT22;15182;48.174;11.562;2023-05-20T12:02:02;27.00;85.50
27803;DHT22;15182;48.174;11.562;2023-05-20T12:04:29;27.10;85.30
27803;DHT22;15182;48.174;11.562;2023-05-20T12:06:57;27.30;84.60
27803;DHT22;15182;48.174;11.562;2023-05-20T12:09:25;27.50;83.30
27803;DHT22;15182;48.174;11.562;2023-05-20T12:11:52;27.60;83.20
27803;DHT22;15182;48.174;11.562;2023-05-20T12:14:23;27.60;81.90
27803;DHT22;15182;48.174;11.562;2023-05-20T12:16:50;27.70;81.20
27803;DHT22;15182;48.174;11.562;2023-05-20T12:19:18;27.80;82.50
27803;DHT22;15182;48.174;11.562;2023-05-20T12:21:46;27.80;81.90
27803;DHT22;15182;48.174;11.562;2023-05-20T12:24:14;27.90;81.40
27803;DHT22;15182;48.174;11.562;2023-05-20T12:26:53;27.90;80.90
27803;DHT22;15182;48.174;11.562;2023-05-20T12:29:23;27.90;80.70
27803;DHT22;15182;48.174;11.562;2023-05-20T12:31:51;28.00;80.60
27803;DHT22;15182;48.174;11.562;2023-05-20T12:34:18;28.00;80.10
27803;DHT22;15182;48.174;11.562;2023-05-20T12:36:46;27.90;79.80
27803;DHT22;15182;48.174;11.562;2023-05-20T12:39:14;27.90;79.60
27803;DHT22;15182;48.174;11.562;2023-05-20T12:41:43;27.80;79.60
27803;DHT22;15182;48.174;11.562;2023-05-20T12:44:10;27.80;79.70
27803;DHT22;15182;48.174;11.562;2023-05-20T12:46:40;27.70;79.90
27803;DHT22;15182;48.174;11.562;2023-05-20T12:49:07;27.70;79.40
27803;DHT22;15182;48.174;11.562;2023-05-20T12:51:35;27.60;79.70
27803;DHT22;15182;48.174;11.562;2023-05-20T12:54:06;27.50;79.50
27803;DHT22;15182;48.174;11.562;2023-05-20T12:56:33;27.50;79.20
27803;DHT22;15182;48.174;11.562;2023-05-20T12:59:01;27.50;80.50
27803;DHT22;15182;48.174;11.562;2023-05-20T13:01:29;27.50;80.90
27803;DHT22;15182;48.174;11.562;2023-05-20T13:03:58;27.50;80.50
27803;DHT22;15182;48.174;11.562;2023-05-20T13:06:25;27.60;78.90
27803;DHT22;15182;48.174;11.562;2023-05-20T13:08:53;27.70;78.80
27803;DHT22;15182;48.174;11.562;2023-05-20T13:11:21;27.70;78.60
27803;DHT22;15182;48.174;11.562;2023-05-20T13:13:49;27.80;77.80
27803;DHT22;15182;48.174;11.562;2023-05-20T13:16:17;27.80;77.60
27803;DHT22;15182;48.174;11.562;2023-05-20T13:18:45;27.80;77.00
27803;DHT22;15182;48.174;11.562;2023-05-20T13:21:14;27.90;76.80
27803;DHT22;15182;48.174;11.562;2023-05-20T13:23:42;27.90;76.10
27803;DHT22;15182;48.174;11.562;2023-05-20T13:26:10;28.00;76.30
27803;DHT22;15182;48.174;11.562;2023-05-20T13:28:38;28.00;76.20
27803;DHT22;15182;48.174;11.562;2023-05-20T13:31:05;28.00;76.00
27803;DHT22;15182;48.174;11.562;2023-05-20T13:33:33;28.10;75.40
27803;DHT22;15182;48.174;11.562;2023-05-20T13:36:01;28.10;75.70
27803;DHT22;15182;48.174;11.562;2023-05-20T13:38:30;28.20;75.30
27803;DHT22;15182;48.174;11.562;2023-05-20T13:40:58;28.20;75.20
27803;DHT22;15182;48.174;11.562;2023-05-20T13:43:26;28.20;74.30
27803;DHT22;15182;48.174;11.562;2023-05-20T13:45:54;28.20;74.00
27803;DHT22;15182;48.174;11.562;2023-05-20T13:48:21;28.20;73.60
27803;DHT22;15182;48.174;11.562;2023-05-20T13:50:49;28.10;74.30
27803;DHT22;15182;48.174;11.562;2023-05-20T13:53:17;28.10;73.60
27803;DHT22;15182;48.174;11.562;2023-05-20T13:55:46;28.00;73.30
27803;DHT22;15182;48.174;11.562;2023-05-20T13:58:13;27.90;73.30
27803;DHT22;15182;48.174;11.562;2023-05-20T14:00:41;27.80;74.00
27803;DHT22;15182;48.174;11.562;2023-05-20T14:03:09;27.80;73.80
27803;DHT22;15182;48.174;11.562;2023-05-20T14:05:37;27.70;74.60
27803;DHT22;15182;48.174;11.562;2023-05-20T14:08:05;27.70;74.60
27803;DHT22;15182;48.174;11.562;2023-05-20T14:10:33;27.60;74.80
27803;DHT22;15182;48.174;11.562;2023-05-20T14:13:02;27.50;74.80
27803;DHT22;15182;48.174;11.562;2023-05-20T14:15:30;27.40;74.80
27803;DHT22;15182;48.174;11.562;2023-05-20T14:17:58;27.20;75.00
27803;DHT22;15182;48.174;11.562;2023-05-20T14:20:25;27.10;75.30
27803;DHT22;15182;48.174;11.562;2023-05-20T14:22:53;27.10;75.40
27803;DHT22;15182;48.174;11.562;2023-05-20T14:25:21;27.00;75.70
27803;DHT22;15182;48.174;11.562;2023-05-20T14:27:49;26.90;76.40
27803;DHT22;15182;48.174;11.562;2023-05-20T14:30:18;26.80;75.70
27803;DHT22;15182;48.174;11.562;2023-05-20T14:32:46;26.70;75.90
27803;DHT22;15182;48.174;11.562;2023-05-20T14:35:14;26.60;75.80
27803;DHT22;15182;48.174;11.562;2023-05-20T14:37:43;26.50;75.80
27803;DHT22;15182;48.174;11.562;2023-05-20T14:40:11;26.50;76.10
27803;DHT22;15182;48.174;11.562;2023-05-20T14:42:39;26.40;76.30
27803;DHT22;15182;48.174;11.562;2023-05-20T14:45:08;26.40;76.60
27803;DHT22;15182;48.174;11.562;2023-05-20T14:47:38;26.30;76.50
27803;DHT22;15182;48.174;11.562;2023-05-20T14:50:06;26.30;76.70
27803;DHT22;15182;48.174;11.562;2023-05-20T14:52:34;26.20;77.00
27803;DHT22;15182;48.174;11.562;2023-05-20T14:55:02;26.20;77.10
27803;DHT22;15182;48.174;11.562;2023-05-20T14:57:30;26.10;77.50
27803;DHT22;15182;48.174;11.562;2023-05-20T14:59:58;26.10;78.20
27803;DHT22;15182;48.174;11.562;2023-05-20T15:02:26;26.10;78.10
27803;DHT22;15182;48.174;11.562;2023-05-20T15:04:55;26.10;77.80
27803;DHT22;15182;48.174;11.562;2023-05-20T15:07:23;26.10;77.90
27803;DHT22;15182;48.174;11.562;2023-05-20T15:09:51;26.00;77.60
27803;DHT22;15182;48.174;11.562;2023-05-20T15:12:19;26.00;78.00
27803;DHT22;15182;48.174;11.562;2023-05-20T15:14:47;26.00;78.00
27803;DHT22;15182;48.174;11.562;2023-05-20T15:17:14;25.90;78.40
27803;DHT22;15182;48.174;11.562;2023-05-20T15:19:42;25.90;77.90
27803;DHT22;15182;48.174;11.562;2023-05-20T15:22:11;25.90;77.50
27803;DHT22;15182;48.174;11.562;2023-05-20T15:24:39;25.90;77.30
27803;DHT22;15182;48.174;11.562;2023-05-20T15:27:07;25.90;77.50